Airfield :
LOGIN :

Register | Disclaimer

   EN    FR    IT 

 










Legend :    VFR   Marginal VFR   IFR   Intensive IFR   Very Intensive IFR
Visi :
Ceiling :
>= 8 km
>= 3000ft
5 to 8 km
1000 to 3000 ft
1500m to 5 km
500 to 1000 ft
800 to 1500m
200 to 500 ft
< 800m
< 200 ft
Symbols :   Thunderstorms  Fog  Heavy snow  Heavy precipitations  Wind > 20 kt
SIGMETs :     Misc.  Thunderstorms  Icing  Turbulence  Mountain Waves  Volcanic Ashes







- Airport Elevation : 392 ft
- IATA code : CDG
- Download approach charts


LFPG - Paris-Aeroport Charles De Gaulle

CURRENT METAR :
  • 280330Z 26009KT 220V280 9999 BKN006 17/15 Q0999 NOSIG

EXPIRED METARs :
  • 280300Z 27008KT 9999 BKN006 17/15 Q0999 NOSIG
  • 280230Z 28009KT 9999 BKN007 17/15 Q0999 NOSIG
  • 280200Z 26009KT 9999 BKN006 17/16 Q0999 NOSIG
  • 280130Z 25009KT 9999 BKN006 18/16 Q0999 NOSIG
  • 280100Z 27009KT 9999 BKN008 SCT180 19/17 Q0999 NOSIG

TAF AMD TAF LFPG
Valid from the 28 at 01:00 until the 29 at 06:00 UTC


280115Z 2801/2906 27005KT 9999 BKN012 SCT020
TEMPO 2801/2807 BKN007
BECMG 2807/2809 SCT015 SCT025TCU
PROB40
TEMPO 2812/2818 22012G25KT 3000 -TSRA SCT030CB
BECMG 2818/2820 BKN025
BECMG 2822/2824 BKN015 TX22/2812Z TN14/2905Z
ATIS : +33 1 48 62 10 92
No reported NOTAMs for that airfield.



MET'MAP, your aeronautical weather chart ! - Copyright ORBIFLY December 2007 - Disclaimer

ORBIFLY MET'MAP TEAM :

Programming & Development : Alexandra Zaïnal
Concept & Development : Baudouin d'Aumeries
Co-Development & Prog : Marc-Olivier Méhu
Technical & hardware support : Manuel Goepfert

Contact : metmap@orbifly.com




SOURCES & CREDITS :

   NOAA